Time;durP1;ratioP1;P1;durP2;ratioP2;P2;SDS_P1;SDS_P2;PMS_P1;PMS_P2;Temp;Humidity;BMP_temperature;BMP_pressure;BME280_temperature;BME280_humidity;BME280_pressure;Samples;Min_cycle;Max_cycle;Signal;HPM_P1;HPM_P2
2023/10/19 00:00:36;;;;;;;15.85;13.70;;;;;;;;;;5039320;28;20059;-80
2023/10/19 00:03:06;;;;;;;15.02;13.43;;;;;;;;;;5026927;28;20055;-80
2023/10/19 00:05:33;;;;;;;16.48;14.13;;;;;;;;;;5027871;28;20046;-80
2023/10/19 00:08:05;;;;;;;17.83;14.05;;;;;;;;;;5043008;28;20060;-80
2023/10/19 00:10:35;;;;;;;14.93;13.35;;;;;;;;;;5056228;28;20061;-80
2023/10/19 00:13:05;;;;;;;17.10;13.48;;;;;;;;;;5044957;28;20044;-80
2023/10/19 00:15:34;;;;;;;17.30;14.35;;;;;;;;;;5057048;28;20062;-80
2023/10/19 00:18:20;;;;;;;15.40;13.27;;;;;;;;;;5041584;28;20052;-80
2023/10/19 00:20:59;;;;;;;14.35;12.25;;;;;;;;;;5014888;28;20064;-80
2023/10/19 00:23:28;;;;;;;13.82;12.35;;;;;;;;;;5025734;28;20057;-80
2023/10/19 00:25:57;;;;;;;14.50;12.50;;;;;;;;;;5038197;28;20058;-80
2023/10/19 00:28:27;;;;;;;14.27;12.45;;;;;;;;;;5041466;28;20487;-81
2023/10/19 00:31:04;;;;;;;14.75;13.00;;;;;;;;;;5022004;28;20057;-81
2023/10/19 00:33:38;;;;;;;18.77;15.07;;;;;;;;;;5043991;28;20049;-81
2023/10/19 00:36:07;;;;;;;16.20;14.55;;;;;;;;;;5023383;28;20061;-81
2023/10/19 00:38:41;;;;;;;14.60;13.10;;;;;;;;;;5026250;28;20048;-81
2023/10/19 00:41:13;;;;;;;19.75;16.48;;;;;;;;;;5022853;28;20524;-81
2023/10/19 00:43:44;;;;;;;14.07;12.18;;;;;;;;;;5027749;28;20047;-81
2023/10/19 00:46:20;;;;;;;15.55;11.95;;;;;;;;;;5020413;28;20408;-81
2023/10/19 00:48:53;;;;;;;18.02;12.85;;;;;;;;;;5054045;28;20042;-81
2023/10/19 00:51:37;;;;;;;13.07;11.68;;;;;;;;;;5044806;28;20519;-81
2023/10/19 00:54:10;;;;;;;13.73;12.30;;;;;;;;;;5023378;28;20069;-81
2023/10/19 00:56:47;;;;;;;;;;;;;;;;;;5042813;28;20051;-81
2023/10/19 00:59:21;;;;;;;13.68;12.10;;;;;;;;;;5030245;28;19920;-81
2023/10/19 01:01:53;;;;;;;14.38;12.80;;;;;;;;;;5045085;28;20045;-81
2023/10/19 01:04:34;;;;;;;14.77;12.27;;;;;;;;;;5069044;22;20057;-80
2023/10/19 01:07:12;;;;;;;14.32;12.73;;;;;;;;;;4998236;28;20050;-82
2023/10/19 01:09:46;;;;;;;15.82;13.50;;;;;;;;;;5003249;28;20057;-82
2023/10/19 01:15:07;;;;;;;14.48;12.25;;;;;;;;;;5021966;28;20040;-83
2023/10/19 01:17:38;;;;;;;14.85;12.32;;;;;;;;;;5007141;28;20030;-83
2023/10/19 01:20:20;;;;;;;16.60;13.55;;;;;;;;;;5025248;28;20030;-83
2023/10/19 01:23:06;;;;;;;15.77;13.15;;;;;;;;;;4996256;28;20046;-82
2023/10/19 01:25:36;;;;;;;18.23;12.32;;;;;;;;;;5011445;28;20057;-83
2023/10/19 01:28:08;;;;;;;16.90;12.65;;;;;;;;;;4994968;28;20059;-83
2023/10/19 01:30:39;;;;;;;12.95;11.35;;;;;;;;;;4981108;28;20061;-83
2023/10/19 01:33:12;;;;;;;15.07;13.23;;;;;;;;;;5001645;28;20069;-83
2023/10/19 01:38:30;;;;;;;17.23;13.55;;;;;;;;;;4987895;28;19932;-82
2023/10/19 01:40:59;;;;;;;14.43;12.60;;;;;;;;;;4986938;28;20050;-82
2023/10/19 01:43:30;;;;;;;17.10;12.93;;;;;;;;;;5015749;28;20054;-82
2023/10/19 01:45:58;;;;;;;16.63;13.10;;;;;;;;;;5014555;28;20509;-82
2023/10/19 01:48:33;;;;;;;16.13;11.98;;;;;;;;;;5000629;28;20054;-82
2023/10/19 01:51:04;;;;;;;13.23;11.93;;;;;;;;;;5003325;28;20055;-82
2023/10/19 01:53:34;;;;;;;14.23;11.55;;;;;;;;;;4990256;28;20046;-82
2023/10/19 01:56:00;;;;;;;16.05;12.00;;;;;;;;;;5002920;28;20508;-82
2023/10/19 01:58:30;;;;;;;16.13;13.60;;;;;;;;;;4989938;28;20052;-82
2023/10/19 02:01:00;;;;;;;16.13;13.20;;;;;;;;;;5000621;28;20046;-82
2023/10/19 02:03:28;;;;;;;16.85;12.63;;;;;;;;;;5007557;28;20077;-82
2023/10/19 02:05:58;;;;;;;18.38;12.82;;;;;;;;;;4971918;28;20046;-82
2023/10/19 02:08:38;;;;;;;17.10;12.73;;;;;;;;;;4999460;28;20057;-82
2023/10/19 02:11:16;;;;;;;17.08;15.20;;;;;;;;;;5001287;28;20054;-82
2023/10/19 02:13:46;;;;;;;18.77;14.02;;;;;;;;;;4969129;28;20042;-82
2023/10/19 02:16:16;;;;;;;17.70;14.52;;;;;;;;;;4987026;28;20058;-82
2023/10/19 02:18:43;;;;;;;16.02;12.70;;;;;;;;;;5020284;28;20068;-82
2023/10/19 02:21:13;;;;;;;18.55;14.43;;;;;;;;;;4998099;28;20064;-82
2023/10/19 02:23:41;;;;;;;16.23;12.90;;;;;;;;;;4989479;28;20054;-82
2023/10/19 02:26:13;;;;;;;14.38;12.68;;;;;;;;;;4999773;28;20050;-82
2023/10/19 02:28:44;;;;;;;;;;;;;;;;;;4982447;28;20058;-82
2023/10/19 02:31:18;;;;;;;16.38;13.68;;;;;;;;;;5004317;28;20112;-82
2023/10/19 02:33:51;;;;;;;13.80;12.10;;;;;;;;;;4989839;28;20069;-82
2023/10/19 02:36:20;;;;;;;15.65;13.32;;;;;;;;;;5001307;28;20061;-82
2023/10/19 02:38:51;;;;;;;15.27;13.45;;;;;;;;;;5001793;28;20058;-82
2023/10/19 02:41:19;;;;;;;14.90;13.30;;;;;;;;;;4982246;28;20054;-82
2023/10/19 02:43:51;;;;;;;16.65;14.93;;;;;;;;;;4985844;28;20047;-82
2023/10/19 02:46:18;;;;;;;15.93;13.57;;;;;;;;;;5002954;28;20046;-82
2023/10/19 02:48:49;;;;;;;16.67;14.50;;;;;;;;;;5007594;28;20057;-83
2023/10/19 02:51:19;;;;;;;14.27;12.35;;;;;;;;;;4995483;28;20061;-82
2023/10/19 02:53:46;;;;;;;19.60;14.10;;;;;;;;;;5001890;28;20045;-82
2023/10/19 02:56:18;;;;;;;14.85;13.27;;;;;;;;;;4985134;28;20054;-82
2023/10/19 02:58:48;;;;;;;14.85;13.18;;;;;;;;;;4987585;28;20069;-82
2023/10/19 03:01:21;;;;;;;14.82;13.32;;;;;;;;;;4999686;28;20122;-82
2023/10/19 03:03:53;;;;;;;15.18;13.57;;;;;;;;;;5003762;28;20054;-82
2023/10/19 03:06:23;;;;;;;17.97;14.40;;;;;;;;;;5001403;28;20047;-82
2023/10/19 03:08:57;;;;;;;17.13;13.57;;;;;;;;;;4987174;28;20908;-82
2023/10/19 03:11:27;;;;;;;16.60;12.43;;;;;;;;;;4983521;28;20053;-82
2023/10/19 03:13:53;;;;;;;17.35;13.15;;;;;;;;;;4986832;28;20050;-82
2023/10/19 03:16:23;;;;;;;16.02;13.35;;;;;;;;;;5000569;28;20118;-82
2023/10/19 03:18:51;;;;;;;16.33;12.57;;;;;;;;;;4985773;28;20046;-82
2023/10/19 03:21:26;;;;;;;18.65;16.58;;;;;;;;;;4998865;28;20058;-82
2023/10/19 03:23:53;;;;;;;17.00;13.90;;;;;;;;;;4983742;28;20050;-82
2023/10/19 03:26:27;;;;;;;20.00;15.70;;;;;;;;;;4984346;28;20054;-82
2023/10/19 03:29:01;;;;;;;17.63;14.48;;;;;;;;;;5016383;28;20058;-82
2023/10/19 03:31:29;;;;;;;20.52;13.82;;;;;;;;;;5001832;28;20062;-82
2023/10/19 03:33:59;;;;;;;17.02;15.20;;;;;;;;;;4982489;28;20057;-82
2023/10/19 03:36:27;;;;;;;18.77;15.27;;;;;;;;;;4985685;28;20050;-82
2023/10/19 03:38:56;;;;;;;17.42;12.90;;;;;;;;;;4985130;28;20054;-82
2023/10/19 03:41:26;;;;;;;16.40;14.52;;;;;;;;;;4984644;28;20488;-82
2023/10/19 03:43:57;;;;;;;16.58;14.43;;;;;;;;;;4995750;28;20058;-82
2023/10/19 03:46:30;;;;;;;13.98;12.57;;;;;;;;;;4981129;28;20389;-82
2023/10/19 03:49:04;;;;;;;;;;;;;;;;;;5002592;28;20057;-82
2023/10/19 03:51:49;;;;;;;14.98;13.32;;;;;;;;;;4993366;28;19925;-83
2023/10/19 03:54:23;;;;;;;20.13;15.50;;;;;;;;;;4987622;28;20051;-83
2023/10/19 03:56:51;;;;;;;14.48;13.05;;;;;;;;;;4978497;28;20054;-82
2023/10/19 03:59:21;;;;;;;17.48;14.00;;;;;;;;;;4996852;28;20059;-82
2023/10/19 04:01:50;;;;;;;17.65;14.52;;;;;;;;;;5000678;28;20452;-82
2023/10/19 04:04:20;;;;;;;19.10;16.10;;;;;;;;;;5009204;28;20496;-82
2023/10/19 04:06:57;;;;;;;20.40;16.23;;;;;;;;;;4997816;28;20073;-82
2023/10/19 04:09:29;;;;;;;22.55;16.63;;;;;;;;;;5024417;28;20061;-82
2023/10/19 04:11:57;;;;;;;20.20;17.95;;;;;;;;;;5012785;28;20053;-82
2023/10/19 04:14:26;;;;;;;24.60;19.90;;;;;;;;;;5012936;28;20408;-83
2023/10/19 04:16:59;;;;;;;21.05;18.08;;;;;;;;;;5007678;28;20061;-82
2023/10/19 04:19:29;;;;;;;19.85;15.48;;;;;;;;;;5004333;28;20058;-82
2023/10/19 04:22:01;;;;;;;18.43;15.80;;;;;;;;;;5004731;28;20053;-82
2023/10/19 04:24:32;;;;;;;21.23;17.23;;;;;;;;;;5009570;28;20300;-82
2023/10/19 04:27:01;;;;;;;21.00;16.77;;;;;;;;;;5025305;28;20054;-82
2023/10/19 04:29:31;;;;;;;18.15;16.15;;;;;;;;;;5004016;28;20057;-82
2023/10/19 04:32:06;;;;;;;19.00;16.80;;;;;;;;;;4990896;28;20058;-82
2023/10/19 04:34:36;;;;;;;18.73;15.90;;;;;;;;;;4986759;28;21840;-82
2023/10/19 04:37:04;;;;;;;20.30;15.48;;;;;;;;;;4980589;28;20058;-82
2023/10/19 04:39:34;;;;;;;17.05;15.05;;;;;;;;;;5007216;28;20049;-82
2023/10/19 04:42:04;;;;;;;19.10;16.27;;;;;;;;;;4997698;28;20073;-82
2023/10/19 04:44:31;;;;;;;20.80;16.33;;;;;;;;;;4997846;28;20050;-82
2023/10/19 04:47:02;;;;;;;17.20;14.52;;;;;;;;;;4990145;28;20496;-82
2023/10/19 04:49:34;;;;;;;;;;;;;;;;;;5003345;28;20431;-82
2023/10/19 04:52:04;;;;;;;16.85;13.88;;;;;;;;;;5002121;28;19926;-82
2023/10/19 04:54:33;;;;;;;17.42;12.88;;;;;;;;;;5004739;28;20049;-83
2023/10/19 04:57:01;;;;;;;14.70;13.18;;;;;;;;;;5004758;28;20043;-82
2023/10/19 04:59:28;;;;;;;14.82;10.60;;;;;;;;;;5000988;28;20587;-82
2023/10/19 05:01:55;;;;;;;14.27;12.45;;;;;;;;;;4982260;28;20062;-82
2023/10/19 05:04:24;;;;;;;15.70;13.10;;;;;;;;;;4985244;28;20050;-82
2023/10/19 05:06:51;;;;;;;17.52;13.70;;;;;;;;;;5000664;28;20431;-82
2023/10/19 05:09:20;;;;;;;18.98;14.40;;;;;;;;;;5010389;28;20053;-82
2023/10/19 05:11:48;;;;;;;18.23;14.30;;;;;;;;;;4994240;28;20054;-82
2023/10/19 05:14:15;;;;;;;14.98;12.68;;;;;;;;;;4987652;28;20050;-83
2023/10/19 05:16:42;;;;;;;15.40;13.80;;;;;;;;;;5008043;28;20038;-82
2023/10/19 05:19:12;;;;;;;12.80;11.38;;;;;;;;;;5005712;28;20046;-82
2023/10/19 05:21:40;;;;;;;14.25;11.27;;;;;;;;;;5002022;28;20492;-82
2023/10/19 05:24:09;;;;;;;15.15;13.10;;;;;;;;;;4996726;28;20050;-82
2023/10/19 05:26:38;;;;;;;13.57;12.05;;;;;;;;;;5002888;28;20052;-82
2023/10/19 05:29:08;;;;;;;15.60;12.07;;;;;;;;;;4991072;28;20054;-83
2023/10/19 05:31:35;;;;;;;14.02;12.07;;;;;;;;;;5003341;28;20050;-82
2023/10/19 05:34:05;;;;;;;14.38;10.63;;;;;;;;;;4979788;28;20057;-82
2023/10/19 05:36:35;;;;;;;16.92;12.77;;;;;;;;;;5009986;28;20053;-82
2023/10/19 05:39:07;;;;;;;15.38;11.82;;;;;;;;;;5017897;28;20057;-82
2023/10/19 05:41:35;;;;;;;14.75;12.05;;;;;;;;;;4998515;28;20042;-83
2023/10/19 05:44:02;;;;;;;17.10;12.68;;;;;;;;;;4987037;28;20042;-84
2023/10/19 05:46:31;;;;;;;13.48;12.07;;;;;;;;;;5002502;28;20058;-83
2023/10/19 05:48:59;;;;;;;15.30;12.32;;;;;;;;;;5007953;28;20053;-83
2023/10/19 05:51:29;;;;;;;15.75;11.48;;;;;;;;;;5022676;28;20054;-83
2023/10/19 05:54:01;;;;;;;14.77;13.05;;;;;;;;;;4975120;28;20398;-83
2023/10/19 05:56:34;;;;;;;14.38;11.68;;;;;;;;;;4994277;28;20050;-83
2023/10/19 05:59:01;;;;;;;13.80;11.23;;;;;;;;;;5007548;28;20051;-83
2023/10/19 06:01:29;;;;;;;13.93;12.00;;;;;;;;;;5006905;28;20050;-83
2023/10/19 06:03:56;;;;;;;13.77;12.02;;;;;;;;;;5022230;28;20054;-83
2023/10/19 06:06:26;;;;;;;13.43;12.02;;;;;;;;;;5029607;28;20045;-83
2023/10/19 06:08:54;;;;;;;13.77;11.73;;;;;;;;;;4987780;28;20069;-84
2023/10/19 06:11:23;;;;;;;16.83;11.98;;;;;;;;;;5013138;28;20057;-83
2023/10/19 06:13:52;;;;;;;14.20;11.77;;;;;;;;;;4988709;28;20060;-83
2023/10/19 06:16:22;;;;;;;14.48;10.07;;;;;;;;;;5007291;28;20054;-83
2023/10/19 06:18:49;;;;;;;12.80;10.95;;;;;;;;;;4988337;28;20050;-83
2023/10/19 06:21:21;;;;;;;15.48;11.90;;;;;;;;;;4986743;28;20405;-83
2023/10/19 06:23:48;;;;;;;17.50;14.90;;;;;;;;;;5008891;28;20057;-83
2023/10/19 06:26:17;;;;;;;17.20;15.50;;;;;;;;;;4985875;28;20065;-83
2023/10/19 06:28:46;;;;;;;21.85;18.90;;;;;;;;;;4977688;28;20050;-83
2023/10/19 06:31:15;;;;;;;17.95;14.95;;;;;;;;;;4984882;28;20125;-83
2023/10/19 06:33:45;;;;;;;16.08;11.98;;;;;;;;;;4991117;28;20046;-83
2023/10/19 06:36:12;;;;;;;14.75;12.48;;;;;;;;;;4983881;28;20038;-83
2023/10/19 06:38:39;;;;;;;12.77;11.38;;;;;;;;;;5003149;28;20049;-83
2023/10/19 06:41:11;;;;;;;12.80;10.05;;;;;;;;;;4987872;28;20058;-81
2023/10/19 06:43:41;;;;;;;12.32;10.43;;;;;;;;;;4998541;28;20059;-81
2023/10/19 06:46:11;;;;;;;21.83;13.20;;;;;;;;;;4982710;28;20054;-81
2023/10/19 06:48:40;;;;;;;11.27;9.85;;;;;;;;;;4983893;28;20042;-81
2023/10/19 06:51:07;;;;;;;13.95;10.77;;;;;;;;;;4995633;28;20042;-81
2023/10/19 06:53:34;;;;;;;15.48;10.15;;;;;;;;;;5004917;28;20541;-81
2023/10/19 06:56:04;;;;;;;13.00;10.60;;;;;;;;;;5002211;28;20051;-80
2023/10/19 06:58:31;;;;;;;13.43;12.02;;;;;;;;;;4982382;28;20065;-80
2023/10/19 07:01:05;;;;;;;20.48;10.95;;;;;;;;;;4994346;28;20046;-80
2023/10/19 07:03:35;;;;;;;15.13;10.57;;;;;;;;;;4995109;28;20428;-80
2023/10/19 07:06:06;;;;;;;12.52;11.23;;;;;;;;;;5032069;23;20053;-79
2023/10/19 07:08:33;;;;;;;13.00;10.95;;;;;;;;;;5032927;28;20461;-82
2023/10/19 07:11:01;;;;;;;12.55;10.52;;;;;;;;;;5034160;28;20057;-82
2023/10/19 07:13:29;;;;;;;12.10;10.55;;;;;;;;;;5034454;28;20545;-82
2023/10/19 07:15:58;;;;;;;12.63;10.13;;;;;;;;;;5022308;28;20052;-82
2023/10/19 07:18:25;;;;;;;11.50;10.23;;;;;;;;;;5030437;28;20636;-82
2023/10/19 07:21:02;;;;;;;14.23;10.63;;;;;;;;;;5023071;28;20057;-82
2023/10/19 07:23:31;;;;;;;10.02;8.93;;;;;;;;;;5019410;28;20060;-82
2023/10/19 07:26:00;;;;;;;12.07;10.65;;;;;;;;;;5020394;28;20052;-82
2023/10/19 07:28:27;;;;;;;14.48;12.15;;;;;;;;;;5049335;28;20053;-82
2023/10/19 07:30:55;;;;;;;11.45;9.82;;;;;;;;;;5066109;28;20045;-82
2023/10/19 07:33:23;;;;;;;13.32;11.05;;;;;;;;;;5066458;28;20059;-82
2023/10/19 07:35:54;;;;;;;12.35;11.05;;;;;;;;;;5064316;28;20038;-82
2023/10/19 07:38:25;;;;;;;15.63;12.25;;;;;;;;;;5046111;28;20053;-82
2023/10/19 07:40:53;;;;;;;13.27;10.25;;;;;;;;;;5042809;28;20050;-82
2023/10/19 07:43:25;;;;;;;12.68;10.15;;;;;;;;;;5046145;28;20049;-81
2023/10/19 07:45:52;;;;;;;13.75;12.18;;;;;;;;;;5037360;28;20045;-81
2023/10/19 07:48:22;;;;;;;11.18;10.07;;;;;;;;;;5043386;28;20042;-81
2023/10/19 07:50:54;;;;;;;12.73;9.60;;;;;;;;;;5038538;28;20053;-81
2023/10/19 07:53:21;;;;;;;12.65;10.20;;;;;;;;;;5042414;28;20045;-82
2023/10/19 07:55:53;;;;;;;12.82;11.52;;;;;;;;;;5041173;28;20056;-82
2023/10/19 07:58:20;;;;;;;14.20;10.48;;;;;;;;;;5050487;28;20041;-82
2023/10/19 08:00:50;;;;;;;12.82;11.45;;;;;;;;;;5029886;28;20052;-79
2023/10/19 08:03:17;;;;;;;15.65;10.18;;;;;;;;;;5034547;28;20045;-80
2023/10/19 08:05:44;;;;;;;13.38;11.90;;;;;;;;;;5037492;28;20050;-79
2023/10/19 08:08:12;;;;;;;12.82;10.82;;;;;;;;;;5036295;28;20041;-79
2023/10/19 08:10:39;;;;;;;12.48;11.18;;;;;;;;;;5032685;28;20041;-81
2023/10/19 08:13:12;;;;;;;13.18;11.35;;;;;;;;;;5052514;28;20049;-81
2023/10/19 08:15:42;;;;;;;14.85;9.55;;;;;;;;;;5030311;28;20072;-81
2023/10/19 08:18:12;;;;;;;11.25;8.85;;;;;;;;;;5030227;28;20410;-79
2023/10/19 08:20:45;;;;;;;11.45;9.25;;;;;;;;;;5036035;28;20053;-81
2023/10/19 08:23:16;;;;;;;14.68;11.13;;;;;;;;;;5038305;28;20063;-82
2023/10/19 08:25:44;;;;;;;11.63;9.52;;;;;;;;;;5018470;28;20064;-82
2023/10/19 08:28:12;;;;;;;10.93;9.82;;;;;;;;;;5045924;28;20055;-81
2023/10/19 08:30:56;;;;;;;12.23;10.02;;;;;;;;;;5046663;28;20418;-81
2023/10/19 08:33:29;;;;;;;11.85;10.50;;;;;;;;;;5041277;28;20529;-81
2023/10/19 08:35:57;;;;;;;14.35;11.45;;;;;;;;;;5030707;28;20054;-81
2023/10/19 08:38:27;;;;;;;11.27;9.95;;;;;;;;;;5042067;28;20045;-81
2023/10/19 08:40:54;;;;;;;11.57;9.63;;;;;;;;;;5045990;28;20074;-81
2023/10/19 08:43:24;;;;;;;10.57;9.32;;;;;;;;;;5044534;28;20045;-80
2023/10/19 08:45:51;;;;;;;10.85;8.93;;;;;;;;;;5022251;28;20049;-79
2023/10/19 08:48:21;;;;;;;11.20;8.68;;;;;;;;;;5036943;28;20045;-80
2023/10/19 08:50:49;;;;;;;10.32;9.00;;;;;;;;;;5055176;28;20053;-80
2023/10/19 08:53:19;;;;;;;11.52;10.27;;;;;;;;;;5039451;28;20045;-80
2023/10/19 08:55:48;;;;;;;10.57;9.30;;;;;;;;;;5040590;28;20068;-80
2023/10/19 08:58:19;;;;;;;9.40;8.32;;;;;;;;;;5047381;28;20093;-80
2023/10/19 09:00:53;;;;;;;10.40;9.20;;;;;;;;;;5047676;28;20045;-80
2023/10/19 09:03:21;;;;;;;9.27;8.27;;;;;;;;;;5045316;28;20525;-80
2023/10/19 09:05:53;;;;;;;9.18;8.27;;;;;;;;;;5046294;28;20051;-80
2023/10/19 09:08:23;;;;;;;11.02;8.95;;;;;;;;;;5030455;28;20049;-80
2023/10/19 09:10:53;;;;;;;10.40;8.45;;;;;;;;;;5027331;28;20049;-79
2023/10/19 09:13:23;;;;;;;9.55;8.52;;;;;;;;;;5032681;28;20057;-79
2023/10/19 09:15:53;;;;;;;11.88;9.23;;;;;;;;;;5059981;28;20044;-79
2023/10/19 09:18:27;;;;;;;10.85;9.63;;;;;;;;;;5021093;28;20378;-80
2023/10/19 09:21:07;;;;;;;12.00;8.30;;;;;;;;;;5036939;28;20065;-80
2023/10/19 09:23:36;;;;;;;9.90;8.00;;;;;;;;;;5040288;28;20060;-80
2023/10/19 09:26:07;;;;;;;10.05;7.93;;;;;;;;;;5057616;28;20054;-80
2023/10/19 09:28:37;;;;;;;8.93;8.00;;;;;;;;;;5058768;28;20053;-80
2023/10/19 09:31:09;;;;;;;9.27;8.38;;;;;;;;;;5039370;28;20053;-80
2023/10/19 09:33:37;;;;;;;11.00;8.52;;;;;;;;;;5057619;28;20055;-80
2023/10/19 09:36:12;;;;;;;9.13;6.93;;;;;;;;;;5046428;28;20053;-80
2023/10/19 09:38:41;;;;;;;10.00;7.53;;;;;;;;;;5048201;28;20045;-80
2023/10/19 09:41:10;;;;;;;8.77;7.97;;;;;;;;;;5038024;28;20060;-80
2023/10/19 09:43:39;;;;;;;9.45;6.60;;;;;;;;;;5044878;28;20049;-80
2023/10/19 09:46:11;;;;;;;7.30;6.55;;;;;;;;;;5042273;28;20056;-80
2023/10/19 09:48:42;;;;;;;10.23;7.38;;;;;;;;;;5045612;28;20037;-80
2023/10/19 09:51:12;;;;;;;9.45;7.82;;;;;;;;;;5023608;28;20052;-80
2023/10/19 09:53:49;;;;;;;9.38;6.97;;;;;;;;;;5046261;28;20051;-80
2023/10/19 09:56:45;;;;;;;7.45;6.15;;;;;;;;;;5040659;28;20045;-80
2023/10/19 09:59:21;;;;;;;;;;;;;;;;;;5047127;28;20061;-80
2023/10/19 10:02:12;;;;;;;8.17;7.03;;;;;;;;;;5041555;28;19921;-80
2023/10/19 10:04:45;;;;;;;7.93;6.43;;;;;;;;;;5020516;28;20308;-81
2023/10/19 10:07:12;;;;;;;7.57;6.75;;;;;;;;;;5062867;28;20045;-80
2023/10/19 10:09:43;;;;;;;6.82;6.13;;;;;;;;;;5057882;28;20435;-80
2023/10/19 10:12:17;;;;;;;7.03;6.03;;;;;;;;;;5043749;28;20054;-80
2023/10/19 10:14:55;;;;;;;7.72;6.45;;;;;;;;;;5046256;28;20052;-80
2023/10/19 10:17:27;;;;;;;7.25;6.20;;;;;;;;;;5062278;28;20044;-80
2023/10/19 10:19:57;;;;;;;7.45;5.88;;;;;;;;;;5056885;28;20049;-81
2023/10/19 10:22:27;;;;;;;6.50;5.35;;;;;;;;;;5046003;28;20055;-80
2023/10/19 10:24:56;;;;;;;8.65;5.28;;;;;;;;;;5045726;28;20060;-81
2023/10/19 10:27:44;;;;;;;6.30;5.70;;;;;;;;;;5037447;28;20052;-81
2023/10/19 10:30:21;;;;;;;7.57;6.78;;;;;;;;;;5044981;28;20049;-81
2023/10/19 10:32:53;;;;;;;6.57;5.97;;;;;;;;;;5039933;28;20057;-81
2023/10/19 10:35:54;;;;;;;6.75;5.78;;;;;;;;;;5038642;28;20049;-81
2023/10/19 10:38:34;;;;;;;9.15;5.78;;;;;;;;;;5040333;28;20435;-81
2023/10/19 10:41:01;;;;;;;9.45;6.35;;;;;;;;;;5041882;28;20304;-81
2023/10/19 10:43:33;;;;;;;5.90;4.77;;;;;;;;;;5039655;28;20052;-80
2023/10/19 10:46:05;;;;;;;7.90;5.05;;;;;;;;;;5041058;28;20059;-80
2023/10/19 10:48:36;;;;;;;18.02;6.32;;;;;;;;;;5056595;28;20049;-80
2023/10/19 10:51:03;;;;;;;8.32;5.88;;;;;;;;;;5023945;28;20419;-80
2023/10/19 10:53:30;;;;;;;6.03;5.43;;;;;;;;;;5043546;28;20049;-81
2023/10/19 10:56:01;;;;;;;5.72;5.05;;;;;;;;;;5047814;28;20059;-80
2023/10/19 10:58:31;;;;;;;6.35;4.55;;;;;;;;;;5053646;28;20044;-81
2023/10/19 11:01:06;;;;;;;7.45;5.30;;;;;;;;;;5024436;28;20049;-80
2023/10/19 11:03:39;;;;;;;5.90;4.78;;;;;;;;;;5039635;28;20051;-80
2023/10/19 11:06:08;;;;;;;8.10;6.70;;;;;;;;;;5044262;28;20061;-80
2023/10/19 11:08:35;;;;;;;6.07;5.40;;;;;;;;;;5044088;28;20128;-80
2023/10/19 11:11:05;;;;;;;7.55;5.43;;;;;;;;;;5033164;28;20058;-80
2023/10/19 11:13:35;;;;;;;6.63;5.07;;;;;;;;;;5018928;28;20053;-80
2023/10/19 11:16:05;;;;;;;6.90;5.50;;;;;;;;;;5039797;28;20054;-80
2023/10/19 11:18:40;;;;;;;6.93;4.68;;;;;;;;;;5051685;28;20430;-80
2023/10/19 11:21:12;;;;;;;6.32;5.70;;;;;;;;;;5043699;28;20045;-80
2023/10/19 11:23:43;;;;;;;5.10;4.63;;;;;;;;;;5056054;28;20049;-80
2023/10/19 11:26:10;;;;;;;7.85;5.32;;;;;;;;;;5025353;28;20053;-80
2023/10/19 11:28:42;;;;;;;6.38;5.55;;;;;;;;;;5042712;28;20050;-80
2023/10/19 11:31:14;;;;;;;6.50;5.70;;;;;;;;;;5025003;28;20049;-80
2023/10/19 11:33:45;;;;;;;7.93;5.32;;;;;;;;;;5039763;28;20067;-80
2023/10/19 11:36:14;;;;;;;7.05;5.40;;;;;;;;;;5043796;28;20060;-80
2023/10/19 11:38:45;;;;;;;6.65;5.88;;;;;;;;;;5041801;28;20490;-81
2023/10/19 11:41:17;;;;;;;;;;;;;;;;;;5042359;28;20452;-80
2023/10/19 11:43:45;;;;;;;5.90;5.30;;;;;;;;;;5040787;28;19936;-80
2023/10/19 11:46:15;;;;;;;6.10;5.07;;;;;;;;;;5033996;28;20053;-80
2023/10/19 11:48:46;;;;;;;9.50;5.03;;;;;;;;;;5019359;28;20065;-80
2023/10/19 11:51:18;;;;;;;7.82;5.60;;;;;;;;;;5039910;28;20056;-81
2023/10/19 11:53:45;;;;;;;8.48;5.70;;;;;;;;;;5036081;28;20056;-81
2023/10/19 11:56:15;;;;;;;8.27;6.88;;;;;;;;;;5011091;28;20050;-80
2023/10/19 11:58:46;;;;;;;6.35;5.75;;;;;;;;;;5039253;28;20041;-80
2023/10/19 12:01:16;;;;;;;8.88;5.80;;;;;;;;;;5040618;28;20049;-80
2023/10/19 12:03:45;;;;;;;8.02;6.53;;;;;;;;;;5039260;28;20049;-80
2023/10/19 12:06:18;;;;;;;6.75;6.05;;;;;;;;;;5037633;28;20049;-80
2023/10/19 12:08:47;;;;;;;6.43;5.75;;;;;;;;;;5054096;28;20046;-80
2023/10/19 12:11:16;;;;;;;7.55;5.95;;;;;;;;;;5039340;28;20053;-80
2023/10/19 12:13:46;;;;;;;7.22;6.32;;;;;;;;;;5040368;28;20054;-80
2023/10/19 12:16:16;;;;;;;6.93;6.22;;;;;;;;;;5039715;28;20048;-80
2023/10/19 12:18:48;;;;;;;7.22;6.45;;;;;;;;;;5039110;28;20056;-80
2023/10/19 12:21:27;;;;;;;11.13;6.88;;;;;;;;;;5046424;28;20059;-81
2023/10/19 12:23:59;;;;;;;8.60;6.30;;;;;;;;;;5064477;28;20054;-81
2023/10/19 12:26:30;;;;;;;8.40;5.80;;;;;;;;;;5030629;28;20408;-80
2023/10/19 12:28:57;;;;;;;7.10;5.63;;;;;;;;;;5045385;28;20054;-80
2023/10/19 12:31:25;;;;;;;6.57;5.97;;;;;;;;;;5029314;28;20060;-80
2023/10/19 12:33:56;;;;;;;7.30;6.43;;;;;;;;;;5047962;28;20059;-80
2023/10/19 12:36:32;;;;;;;6.47;5.80;;;;;;;;;;5037304;28;20075;-80
2023/10/19 12:39:00;;;;;;;7.72;6.75;;;;;;;;;;5038479;28;20049;-80
2023/10/19 12:41:33;;;;;;;7.25;6.57;;;;;;;;;;5041679;28;20599;-80
2023/10/19 12:44:02;;;;;;;6.85;5.85;;;;;;;;;;5060276;28;20045;-80
2023/10/19 12:46:30;;;;;;;9.10;7.47;;;;;;;;;;5041057;28;20057;-80
2023/10/19 12:49:00;;;;;;;9.07;6.60;;;;;;;;;;5061388;28;20045;-80
2023/10/19 12:51:30;;;;;;;11.43;7.50;;;;;;;;;;5046754;28;20056;-80
2023/10/19 12:54:03;;;;;;;10.30;7.30;;;;;;;;;;5037891;28;20060;-80
2023/10/19 12:56:35;;;;;;;9.02;8.13;;;;;;;;;;5070746;28;20048;-80
2023/10/19 12:59:06;;;;;;;9.10;7.65;;;;;;;;;;5048878;28;20063;-80
2023/10/19 13:01:35;;;;;;;8.85;7.95;;;;;;;;;;5042016;28;20059;-80
2023/10/19 13:04:16;;;;;;;9.88;8.50;;;;;;;;;;5062402;22;20128;-83
2023/10/19 13:06:43;;;;;;;10.85;8.50;;;;;;;;;;5026112;28;20049;-83
2023/10/19 13:09:15;;;;;;;8.90;8.10;;;;;;;;;;5032018;28;20045;-84
2023/10/19 13:11:44;;;;;;;8.38;6.95;;;;;;;;;;5005488;28;20053;-83
2023/10/19 13:14:15;;;;;;;10.13;6.88;;;;;;;;;;5006551;28;20065;-83
2023/10/19 13:16:42;;;;;;;9.10;7.95;;;;;;;;;;5022835;28;20050;-83
2023/10/19 13:19:13;;;;;;;12.40;7.47;;;;;;;;;;5007059;28;20038;-83
2023/10/19 13:21:42;;;;;;;15.05;7.15;;;;;;;;;;4994682;28;20049;-83
2023/10/19 13:24:09;;;;;;;10.13;7.85;;;;;;;;;;5013938;28;20054;-82
2023/10/19 13:26:42;;;;;;;8.40;6.40;;;;;;;;;;5004454;28;20042;-84
2023/10/19 13:29:10;;;;;;;7.70;6.10;;;;;;;;;;5008545;28;20061;-84
2023/10/19 13:31:37;;;;;;;8.65;7.20;;;;;;;;;;5002038;28;20060;-84
2023/10/19 13:34:10;;;;;;;6.43;5.57;;;;;;;;;;5016437;28;20041;-83
2023/10/19 13:36:38;;;;;;;5.78;5.00;;;;;;;;;;5005111;28;20046;-83
2023/10/19 13:39:12;;;;;;;8.45;6.85;;;;;;;;;;5003467;28;20083;-83
2023/10/19 13:41:41;;;;;;;6.47;5.88;;;;;;;;;;4996184;28;20052;-83
2023/10/19 13:44:11;;;;;;;6.00;5.40;;;;;;;;;;5004892;28;20053;-83
2023/10/19 13:46:41;;;;;;;9.18;6.28;;;;;;;;;;4998035;28;20057;-84
2023/10/19 13:49:11;;;;;;;7.88;5.93;;;;;;;;;;4990928;28;20042;-83
2023/10/19 13:51:40;;;;;;;7.18;6.18;;;;;;;;;;4993310;28;20042;-83
2023/10/19 13:54:12;;;;;;;7.85;5.97;;;;;;;;;;5002956;28;20061;-83
2023/10/19 13:56:41;;;;;;;7.45;5.93;;;;;;;;;;5001886;28;20054;-83
2023/10/19 13:59:11;;;;;;;6.40;5.43;;;;;;;;;;5000333;28;20045;-83
2023/10/19 14:01:40;;;;;;;7.05;6.35;;;;;;;;;;5007818;28;20060;-83
2023/10/19 14:04:07;;;;;;;10.70;7.15;;;;;;;;;;4992883;28;20266;-83
2023/10/19 14:06:34;;;;;;;9.25;6.20;;;;;;;;;;5002800;28;20053;-83
2023/10/19 14:09:04;;;;;;;9.45;8.00;;;;;;;;;;4985582;28;20061;-83
2023/10/19 14:11:32;;;;;;;7.45;6.05;;;;;;;;;;5000027;28;20054;-83
2023/10/19 14:14:00;;;;;;;7.95;6.93;;;;;;;;;;5000916;28;20424;-84
2023/10/19 14:16:27;;;;;;;8.02;6.80;;;;;;;;;;4983889;28;20062;-84
2023/10/19 14:18:57;;;;;;;7.20;6.47;;;;;;;;;;4998061;28;20065;-84
2023/10/19 14:21:28;;;;;;;8.20;7.35;;;;;;;;;;4999239;28;20059;-84
2023/10/19 14:23:55;;;;;;;8.40;7.45;;;;;;;;;;5005709;28;20070;-83
2023/10/19 14:26:27;;;;;;;9.93;7.78;;;;;;;;;;5000478;28;20065;-83
2023/10/19 14:28:54;;;;;;;6.97;6.30;;;;;;;;;;5002675;28;20065;-84
2023/10/19 14:31:23;;;;;;;6.10;5.50;;;;;;;;;;5006521;28;20061;-84
2023/10/19 14:33:50;;;;;;;7.10;6.40;;;;;;;;;;5001955;28;20440;-84
2023/10/19 14:36:20;;;;;;;6.43;5.78;;;;;;;;;;4992074;28;20049;-84
2023/10/19 14:38:47;;;;;;;8.68;6.85;;;;;;;;;;4978022;28;20043;-83
2023/10/19 14:41:16;;;;;;;10.82;8.07;;;;;;;;;;5004910;28;20049;-84
2023/10/19 14:43:46;;;;;;;15.05;10.10;;;;;;;;;;5003661;28;20045;-84
2023/10/19 14:46:14;;;;;;;12.82;10.93;;;;;;;;;;4978849;28;20062;-84
2023/10/19 14:48:46;;;;;;;10.55;8.63;;;;;;;;;;5001742;28;20050;-84
2023/10/19 14:51:16;;;;;;;9.48;8.50;;;;;;;;;;4999836;28;20046;-84
2023/10/19 14:53:46;;;;;;;10.18;7.47;;;;;;;;;;5018065;28;20045;-83